createdAt,value
2023-02-09T00:04:27.544Z,64642.13
2023-02-09T00:09:33.550Z,64682.25
2023-02-09T00:14:37.990Z,64703.41
2023-02-09T00:19:42.535Z,64585.41
2023-02-09T00:24:48.360Z,64664.34
2023-02-09T00:29:53.259Z,64554.63
2023-02-09T00:34:57.882Z,64486.44
2023-02-09T00:40:04.062Z,64532.66
2023-02-09T00:45:09.649Z,64614.28
2023-02-09T00:50:13.744Z,64548.81
2023-02-09T00:55:20.133Z,64423.16
2023-02-09T01:00:24.934Z,64411.03
2023-02-09T01:05:29.514Z,64445.25
2023-02-09T01:10:35.444Z,64555.69
2023-02-09T01:15:41.111Z,64615.56
2023-02-09T01:20:46.966Z,64657.34
2023-02-09T01:26:02.042Z,64611.84
2023-02-09T01:31:07.950Z,64684.34
2023-02-09T01:36:12.772Z,64629.72
2023-02-09T01:41:18.916Z,64652.25
2023-02-09T01:46:24.484Z,64603.38
2023-02-09T01:51:29.144Z,64612.38
2023-02-09T01:56:38.384Z,64538.91
2023-02-09T02:01:44.400Z,64595.88
2023-02-09T02:06:49.747Z,64573.25
2023-02-09T02:11:56.432Z,64484.97
2023-02-09T02:17:12.796Z,64587.81
2023-02-09T02:22:45.795Z,64506.41
2023-02-09T02:28:07.368Z,64572.19
2023-02-09T02:33:33.797Z,64594.41
2023-02-09T02:38:44.466Z,64542.28
2023-02-09T02:43:57.283Z,64539.19
2023-02-09T02:49:09.889Z,64444.06
2023-02-09T02:54:18.212Z,64462.25
2023-02-09T02:59:26.168Z,64502.41
2023-02-09T03:04:34.432Z,64486.56
2023-02-09T03:09:38.896Z,64502.19
2023-02-09T03:14:49.489Z,64568.34
2023-02-09T03:20:04.452Z,64600.63
2023-02-09T03:25:13.953Z,64620.97
2023-02-09T03:30:19.497Z,64478.13
2023-02-09T03:35:27.263Z,64498.94
2023-02-09T03:40:31.675Z,64465.19
2023-02-09T03:45:36.121Z,64442.72
2023-02-09T03:50:42.384Z,64459.63
2023-02-09T03:55:47.396Z,64413.66
2023-02-09T04:00:51.852Z,64519.44
2023-02-09T04:05:57.777Z,64569.13
2023-02-09T04:11:02.159Z,64499.25
2023-02-09T04:16:07.376Z,64504.00
2023-02-09T04:21:13.319Z,64510.25
2023-02-09T04:26:18.046Z,64461.63
2023-02-09T04:31:22.628Z,64565.84
2023-02-09T04:36:28.649Z,64528.19
2023-02-09T04:41:32.996Z,64451.16
2023-02-09T04:46:37.325Z,64306.00
2023-02-09T04:51:43.484Z,64426.88
2023-02-09T04:56:47.875Z,64426.09
2023-02-09T05:01:52.641Z,64327.22
2023-02-09T05:07:00.678Z,64351.91
2023-02-09T05:12:05.592Z,64443.13
2023-02-09T05:17:10.153Z,64394.53
2023-02-09T05:22:16.085Z,64313.16
2023-02-09T05:27:20.734Z,64244.72
2023-02-09T05:32:25.055Z,64248.00
2023-02-09T05:37:30.914Z,64311.94
2023-02-09T05:42:35.558Z,64214.69
2023-02-09T05:47:39.990Z,64308.09
2023-02-09T05:52:46.604Z,64289.03
2023-02-09T05:57:51.013Z,64325.00
2023-02-09T06:02:56.029Z,64439.03
2023-02-09T06:08:02.148Z,64347.81
2023-02-09T06:13:06.566Z,64422.53
2023-02-09T06:18:11.257Z,64453.81
2023-02-09T06:23:17.035Z,64506.94
2023-02-09T06:28:21.731Z,64448.13
2023-02-09T06:33:28.355Z,64567.84
2023-02-09T06:38:38.413Z,64463.72
2023-02-09T06:43:46.014Z,64635.13
2023-02-09T06:48:53.751Z,64671.94
2023-02-09T06:54:02.498Z,64580.00
2023-02-09T06:59:08.996Z,64636.19
2023-02-09T07:04:16.079Z,64552.53
2023-02-09T07:09:25.071Z,64670.06
2023-02-09T07:14:30.399Z,64717.59
2023-02-09T07:19:34.890Z,64751.72
2023-02-09T07:24:40.859Z,64779.56
2023-02-09T07:29:45.786Z,64834.38
2023-02-09T07:34:50.289Z,64849.88
2023-02-09T07:39:56.098Z,64920.16
2023-02-09T07:45:00.974Z,64910.50
2023-02-09T07:50:06.438Z,64892.47
2023-02-09T07:55:12.282Z,64946.91
2023-02-09T08:00:18.307Z,64988.19
2023-02-09T08:05:28.088Z,65014.28
2023-02-09T08:10:34.206Z,64965.78
2023-02-09T08:15:42.258Z,64989.69
2023-02-09T08:20:47.816Z,64973.84
2023-02-09T08:25:54.160Z,64892.28
2023-02-09T08:30:58.758Z,64945.84
2023-02-09T08:36:03.469Z,64966.53
2023-02-09T08:41:12.227Z,65024.69
2023-02-09T08:46:16.998Z,65140.72
2023-02-09T08:51:21.705Z,65037.97
2023-02-09T08:56:27.816Z,65059.34
2023-02-09T09:01:32.607Z,65107.13
2023-02-09T09:06:37.193Z,65115.53
2023-02-09T09:11:43.064Z,65059.44
2023-02-09T09:16:47.455Z,65145.41
2023-02-09T09:21:51.934Z,65155.81
2023-02-09T09:26:58.203Z,65186.84
2023-02-09T09:32:02.688Z,65130.94
2023-02-09T09:37:07.400Z,65183.66
2023-02-09T09:42:24.819Z,65256.09
2023-02-09T09:47:37.623Z,65307.50
2023-02-09T09:52:45.210Z,65341.47
2023-02-09T09:57:52.514Z,65301.13
2023-02-09T10:02:56.782Z,65361.38
2023-02-09T10:08:07.005Z,65276.13
2023-02-09T10:13:20.862Z,65297.94
2023-02-09T10:18:26.450Z,65224.63
2023-02-09T10:23:40.261Z,65424.22
2023-02-09T10:28:48.140Z,65491.25
2023-02-09T10:33:58.733Z,65413.78
2023-02-09T10:39:15.205Z,65411.34
2023-02-09T10:44:25.235Z,65342.31
2023-02-09T10:49:32.388Z,65225.47
2023-02-09T10:54:36.800Z,65259.28
2023-02-09T10:59:42.994Z,65243.13
2023-02-09T11:04:48.977Z,65406.75
2023-02-09T11:09:54.776Z,65401.75
2023-02-09T11:15:02.833Z,65415.06
2023-02-09T11:20:24.604Z,65323.47
2023-02-09T11:25:34.416Z,65424.13
2023-02-09T11:30:55.566Z,65380.97
2023-02-09T11:36:17.204Z,65381.81
2023-02-09T11:41:47.151Z,65435.31
2023-02-09T11:47:00.188Z,65509.91
2023-02-09T11:52:06.481Z,65512.25
2023-02-09T11:57:22.252Z,65472.69
2023-02-09T12:02:46.421Z,65581.91
2023-02-09T12:08:14.291Z,65593.09
2023-02-09T12:13:31.740Z,65626.72
2023-02-09T12:18:38.113Z,65736.97
2023-02-09T12:23:43.716Z,65833.59
2023-02-09T12:28:50.023Z,65688.63
2023-02-09T12:34:29.120Z,65578.78
2023-02-09T12:39:35.122Z,65630.66
2023-02-09T12:44:40.469Z,65752.28
2023-02-09T12:49:46.549Z,65921.19
2023-02-09T12:54:52.672Z,65681.25
2023-02-09T13:00:35.500Z,65610.19
2023-02-09T13:05:46.176Z,65701.97
2023-02-09T13:10:57.886Z,65766.78
2023-02-09T13:16:24.598Z,65874.66
2023-02-09T13:21:40.641Z,65854.44
2023-02-09T13:26:52.526Z,65828.06
2023-02-09T13:32:05.169Z,65807.44
2023-02-09T13:37:23.237Z,65799.84
2023-02-09T13:42:28.900Z,65862.91
2023-02-09T13:47:33.212Z,65853.28
2023-02-09T13:52:40.675Z,65815.34
2023-02-09T13:57:47.608Z,65847.94
2023-02-09T14:02:55.711Z,65852.22
2023-02-09T14:08:03.458Z,65905.16
2023-02-09T14:13:18.487Z,65911.56
2023-02-09T14:18:29.765Z,65920.66
2023-02-09T14:23:35.724Z,65845.88
2023-02-09T14:28:41.047Z,65907.91
2023-02-09T14:33:49.366Z,65937.97
2023-02-09T14:39:11.418Z,65982.72
2023-02-09T14:44:21.724Z,65951.34
2023-02-09T14:49:26.849Z,65875.75
2023-02-09T14:54:34.537Z,65819.19
2023-02-09T14:59:38.854Z,65929.03
2023-02-09T15:04:43.498Z,65887.59
2023-02-09T15:09:50.601Z,65793.50
2023-02-09T15:14:56.711Z,65829.59
2023-02-09T15:20:01.211Z,65768.94
2023-02-09T15:25:08.398Z,65689.78
2023-02-09T15:30:16.097Z,65457.44
2023-02-09T15:35:22.953Z,65453.06
2023-02-09T15:40:50.484Z,65397.59
2023-02-09T15:46:12.149Z,65421.88
2023-02-09T15:51:18.161Z,65395.03
2023-02-09T15:56:24.352Z,65414.09
2023-02-09T16:01:28.871Z,65353.91
2023-02-09T16:06:35.727Z,65373.06
2023-02-09T16:11:42.271Z,65356.16
2023-02-09T16:16:46.661Z,65380.53
2023-02-09T16:21:54.386Z,65375.22
2023-02-09T16:27:01.949Z,65400.78
2023-02-09T16:32:08.059Z,65430.41
2023-02-09T16:37:16.379Z,65433.81
2023-02-09T16:42:22.267Z,65416.66
2023-02-09T16:47:28.343Z,65406.00
2023-02-09T16:52:33.015Z,65369.69
2023-02-09T16:57:38.811Z,65407.59
2023-02-09T17:02:44.345Z,65333.06
2023-02-09T17:07:54.836Z,65266.22
2023-02-09T17:13:04.745Z,65279.41
2023-02-09T17:18:13.248Z,65366.06
2023-02-09T17:23:19.260Z,65318.78
2023-02-09T17:28:25.509Z,65285.34
2023-02-09T17:33:33.266Z,65283.03
2023-02-09T17:38:41.004Z,65292.16
2023-02-09T17:43:47.697Z,65248.97
2023-02-09T17:48:52.175Z,65265.56
2023-02-09T17:53:57.735Z,65298.91
2023-02-09T17:59:13.468Z,65209.19
2023-02-09T18:04:20.520Z,65163.91
2023-02-09T18:09:25.039Z,65163.56
2023-02-09T18:14:32.688Z,65181.97
2023-02-09T18:19:37.255Z,65100.75
2023-02-09T18:24:42.057Z,65108.63
2023-02-09T18:29:47.815Z,65087.47
2023-02-09T18:34:52.538Z,65130.41
2023-02-09T18:39:56.908Z,65118.84
2023-02-09T18:45:02.964Z,65098.22
2023-02-09T18:50:07.959Z,65118.41
2023-02-09T18:55:12.363Z,65081.22
2023-02-09T19:00:20.473Z,65040.00
2023-02-09T19:05:26.234Z,65017.78
2023-02-09T19:10:33.102Z,65025.13
2023-02-09T19:15:40.435Z,65018.31
2023-02-09T19:20:44.973Z,65093.31
2023-02-09T19:25:49.377Z,65030.03
2023-02-09T19:30:55.398Z,65011.53
2023-02-09T19:35:59.821Z,64996.03
2023-02-09T19:41:10.443Z,64965.38
2023-02-09T19:46:16.968Z,65016.72
2023-02-09T19:51:21.459Z,65045.31
2023-02-09T19:56:25.791Z,65038.94
2023-02-09T20:01:32.400Z,65038.28
2023-02-09T20:06:36.899Z,65064.00
2023-02-09T20:11:41.343Z,65004.09
2023-02-09T20:16:47.058Z,65016.09
2023-02-09T20:21:51.085Z,64973.75
2023-02-09T20:26:55.435Z,64987.53
2023-02-09T20:32:02.060Z,64976.00
2023-02-09T20:37:07.258Z,65015.16
2023-02-09T20:42:28.873Z,64984.34
2023-02-09T20:47:35.020Z,65069.00
2023-02-09T20:52:39.616Z,65034.38
2023-02-09T20:57:44.047Z,64972.69
2023-02-09T21:02:49.922Z,65019.41
2023-02-09T21:07:55.560Z,65006.53
2023-02-09T21:13:00.153Z,65020.34
2023-02-09T21:18:06.800Z,64996.03
2023-02-09T21:23:11.341Z,64991.38
2023-02-09T21:28:15.913Z,65011.88
2023-02-09T21:33:21.788Z,64973.53
2023-02-09T21:38:26.101Z,64996.56
2023-02-09T21:43:30.400Z,65029.78
2023-02-09T21:48:54.707Z,65022.16
2023-02-09T21:53:59.203Z,65082.06
2023-02-09T21:59:03.431Z,65071.13
2023-02-09T22:04:09.457Z,64986.47
2023-02-09T22:09:13.783Z,64984.06
2023-02-09T22:14:18.062Z,64966.22
2023-02-09T22:19:24.269Z,65018.56
2023-02-09T22:24:30.052Z,64959.94
2023-02-09T22:29:34.617Z,64979.16
2023-02-09T22:34:40.496Z,64999.22
2023-02-09T22:39:46.613Z,65024.94
2023-02-09T22:44:50.903Z,65023.75
2023-02-09T22:49:56.720Z,64990.84
2023-02-09T22:55:00.673Z,65007.19
2023-02-09T23:00:07.707Z,64967.78
2023-02-09T23:05:13.625Z,64974.50
2023-02-09T23:10:18.305Z,64948.28
2023-02-09T23:15:22.536Z,64934.72
2023-02-09T23:20:28.431Z,64941.91
2023-02-09T23:25:32.711Z,64952.00
2023-02-09T23:30:36.955Z,64947.63
2023-02-09T23:35:43.271Z,64920.38
2023-02-09T23:40:47.588Z,64946.91
2023-02-09T23:45:52.095Z,64941.47
2023-02-09T23:51:01.090Z,64967.38
2023-02-09T23:56:05.978Z,64944.44
